Terminal Aerodrome Forecast
Issued by NWS

Home | Current Version | Previous Version | Text Only | Print | Product List | Glossary On
Versions: 1 2 3 4 5 6 7 8 9 10 11 12 13 14 15 16 17 18 19
733
FTUS43 KDLH 280237 AAA
TAFHYR
TAF AMD
KHYR 280237Z 2803/2824 VRB03KT 6SM BR VCSH SCT007 OVC012
      TEMPO 2803/2804 5SM -RA BR BKN007 OVC012
     FM280400 18001KT 4SM BR OVC007
     FM280600 VRB02KT 1 1/2SM BR OVC006
      TEMPO 2808/2812 1/2SM FG OVC002
     FM281300 16002KT 4SM BR OVC003
     FM281400 17006KT P6SM SCT010
     FM281700 17008KT P6SM BKN045=

USA.gov is the U.S. government's official web portal to all federal, state and local government web resources and services.